Time;durP1;ratioP1;P1;durP2;ratioP2;P2;SDS_P1;SDS_P2;PMS_P1;PMS_P2;Temp;Humidity;BMP_temperature;BMP_pressure;BME280_temperature;BME280_humidity;BME280_pressure;Samples;Min_cycle;Max_cycle;Signal;HPM_P1;HPM_P2
2021/07/21 00:05:57;;;;;;;20.83;11.00;;;;;;;15.21;76.14;100856.97;20737705;28;20049;-73
2021/07/21 00:26:02;;;;;;;21.42;11.02;;;;;;;15.03;77.15;100855.69;20755373;28;20050;-73
2021/07/21 00:36:04;;;;;;;22.10;11.77;;;;;;;14.99;76.04;100843.50;20764070;28;20042;-73
2021/07/21 00:46:07;;;;;;;18.40;10.63;;;;;;;15.11;75.06;100853.72;20748722;28;20057;-74
2021/07/21 00:56:08;;;;;;;16.08;10.38;;;;;;;15.14;74.94;100852.78;20755318;28;20451;-74
2021/07/21 01:06:10;;;;;;;21.10;11.10;;;;;;;15.12;73.99;100863.34;20745297;28;20104;-73
2021/07/21 01:16:19;;;;;;;19.10;10.48;;;;;;;15.08;74.23;100866.13;20744316;28;20057;-73
2021/07/21 01:26:26;;;;;;;17.55;9.73;;;;;;;15.02;74.12;100858.38;20743748;28;20093;-73
2021/07/21 01:36:40;;;;;;;21.42;10.43;;;;;;;14.95;74.62;100852.41;20742647;28;20373;-72
2021/07/21 01:46:44;;;;;;;17.10;9.53;;;;;;;14.89;74.38;100857.81;20742257;28;20049;-73
2021/07/21 01:56:48;;;;;;;16.48;9.57;;;;;;;14.89;73.97;100842.88;20740797;28;20080;-73
2021/07/21 02:06:51;;;;;;;15.18;9.90;;;;;;;14.80;74.81;100839.59;20740544;28;20065;-73
2021/07/21 02:16:55;;;;;;;16.85;9.10;;;;;;;14.77;74.27;100847.63;20739328;28;20041;-73
2021/07/21 02:26:57;;;;;;;18.90;9.52;;;;;;;14.76;74.76;100844.13;20737930;28;20058;-73
2021/07/21 02:36:59;;;;;;;19.67;9.77;;;;;;;14.55;75.60;100845.50;20737099;28;20038;-73
2021/07/21 02:47:01;;;;;;;16.17;9.82;;;;;;;14.36;76.99;100857.38;20720004;28;20046;-73
2021/07/21 02:57:24;;;;;;;20.30;10.70;;;;;;;14.08;78.03;100844.88;20736504;28;20104;-73
2021/07/21 03:07:27;;;;;;;19.25;11.15;;;;;;;14.01;77.91;100861.69;20733874;28;20050;-73
2021/07/21 03:17:35;;;;;;;17.98;10.35;;;;;;;13.86;78.74;100872.56;20718410;28;20053;-73
2021/07/21 03:27:39;;;;;;;17.40;10.77;;;;;;;13.77;79.18;100884.16;20735066;28;20050;-73
2021/07/21 03:37:43;;;;;;;21.60;10.25;;;;;;;13.64;79.53;100882.66;20733496;28;20129;-73
2021/07/21 03:47:46;;;;;;;19.65;10.90;;;;;;;13.55;80.01;100882.84;20735091;28;20050;-73
2021/07/21 03:57:49;;;;;;;20.77;10.73;;;;;;;13.53;79.95;100895.19;20734271;28;20054;-73
2021/07/21 04:07:52;;;;;;;22.05;11.73;;;;;;;13.55;79.75;100898.63;20716020;28;20046;-73
2021/07/21 04:17:57;;;;;;;20.85;11.40;;;;;;;13.59;79.57;100909.06;20728415;28;20050;-72
2021/07/21 04:27:59;;;;;;;18.07;10.97;;;;;;;13.77;78.74;100914.88;20748520;28;20046;-72
2021/07/21 04:38:01;;;;;;;19.77;10.52;;;;;;;14.06;77.43;100923.00;20746194;28;20054;-72
2021/07/21 04:48:03;;;;;;;18.75;10.27;;;;;;;14.09;77.33;100916.84;20746902;28;20459;-72
2021/07/21 04:58:05;;;;;;;18.40;10.05;;;;;;;14.61;74.73;100932.34;20748460;28;20408;-72
2021/07/21 05:08:07;;;;;;;25.38;10.23;;;;;;;14.14;77.31;100940.44;20728673;28;20563;-72
2021/07/21 05:18:09;;;;;;;19.33;9.50;;;;;;;14.45;76.20;100943.22;20728124;28;20046;-72
2021/07/21 05:28:11;;;;;;;17.30;9.02;;;;;;;14.58;75.69;100961.41;20742437;28;20046;-71
2021/07/21 05:38:13;;;;;;;19.67;9.75;;;;;;;14.77;75.05;100969.75;20740251;28;20038;-71
2021/07/21 05:48:15;;;;;;;17.10;9.65;;;;;;;15.10;73.84;100983.88;20692999;28;20566;-72
2021/07/21 05:58:17;;;;;;;16.55;9.48;;;;;;;15.48;73.13;100963.53;20740239;28;20053;-70
2021/07/21 06:08:19;;;;;;;20.52;9.80;;;;;;;15.88;71.76;100979.16;20671547;28;20109;-70
2021/07/21 06:18:21;;;;;;;18.92;10.18;;;;;;;16.03;71.61;100984.94;20658106;28;20081;-70
2021/07/21 06:28:23;;;;;;;20.15;10.32;;;;;;;16.29;70.89;100990.31;20657842;28;20050;-71
2021/07/21 06:38:24;;;;;;;16.92;9.13;;;;;;;16.50;70.37;100999.38;20655329;28;20046;-70
2021/07/21 06:48:26;;;;;;;14.63;8.82;;;;;;;16.77;68.23;101007.38;20656277;28;20050;-70
2021/07/21 06:58:28;;;;;;;14.50;8.15;;;;;;;17.18;66.12;101014.84;20638896;28;20074;-71
2021/07/21 07:08:30;;;;;;;14.10;8.63;;;;;;;17.82;65.50;101011.81;20710255;28;20046;-71
2021/07/21 07:18:35;;;;;;;13.85;7.28;;;;;;;17.94;63.86;101013.13;20740612;28;20826;-72
2021/07/21 07:28:37;;;;;;;13.27;7.13;;;;;;;18.26;62.22;101009.28;20740133;28;20619;-72
2021/07/21 07:38:39;;;;;;;18.15;7.93;;;;;;;18.53;63.86;101015.31;20721297;28;20096;-71
2021/07/21 07:48:41;;;;;;;14.05;8.07;;;;;;;18.64;62.59;101012.25;20745980;28;20454;-71
2021/07/21 07:58:44;;;;;;;15.98;8.13;;;;;;;18.79;62.02;101008.16;20737532;28;20057;-70
2021/07/21 08:08:47;;;;;;;15.05;8.85;;;;;;;19.09;61.65;101003.41;20806369;28;20099;-74
2021/07/21 08:18:48;;;;;;;18.13;8.27;;;;;;;19.32;61.66;100989.16;20760294;28;20432;-70
2021/07/21 08:28:50;;;;;;;13.63;7.57;;;;;;;19.75;58.73;101003.28;20734165;28;20061;-72
2021/07/21 08:38:51;;;;;;;18.17;7.75;;;;;;;20.42;58.11;100984.25;20731709;28;20396;-73
2021/07/21 08:48:53;;;;;;;15.98;7.53;;;;;;;20.60;55.86;100979.84;20746982;28;20053;-72
2021/07/21 08:58:55;;;;;;;12.85;7.30;;;;;;;20.62;56.07;100985.97;20749057;28;20050;-72
2021/07/21 09:08:57;;;;;;;13.55;7.85;;;;;;;20.67;55.05;100987.47;20755063;28;20041;-74
2021/07/21 09:18:58;;;;;;;12.32;7.10;;;;;;;21.37;54.23;100982.28;20751062;28;20428;-75
2021/07/21 09:29:01;;;;;;;12.90;7.15;;;;;;;21.61;54.05;100990.81;20744553;28;20054;-73
2021/07/21 09:39:03;;;;;;;16.05;6.65;;;;;;;22.01;51.55;100981.53;20745156;28;20041;-72
2021/07/21 09:49:18;;;;;;;12.45;7.45;;;;;;;22.11;51.33;100993.47;20744240;28;20049;-75
2021/07/21 09:59:20;;;;;;;12.52;6.55;;;;;;;22.50;49.74;100989.53;20743485;28;20046;-74
2021/07/21 10:09:24;;;;;;;12.05;6.95;;;;;;;22.60;47.93;100990.75;20741578;28;20042;-74
2021/07/21 10:19:30;;;;;;;12.45;6.90;;;;;;;22.83;48.50;100977.91;20726060;28;20049;-73
2021/07/21 10:29:32;;;;;;;14.07;7.40;;;;;;;23.04;49.28;100971.34;20741870;28;20054;-73
2021/07/21 10:39:36;;;;;;;11.80;7.60;;;;;;;23.73;46.32;100968.09;20741103;28;20052;-74
2021/07/21 10:49:40;;;;;;;15.10;8.43;;;;;;;23.29;46.79;100968.94;20741140;28;20239;-74
2021/07/21 10:59:42;;;;;;;;;;;;;;;23.55;45.84;100958.50;20741034;28;20054;-74
2021/07/21 11:09:48;;;;;;;13.02;7.95;;;;;;;23.47;45.40;100950.06;20722126;28;19922;-74
2021/07/21 11:19:51;;;;;;;13.40;7.40;;;;;;;23.60;44.53;100932.34;20739569;28;20054;-74
2021/07/21 11:29:53;;;;;;;13.02;7.65;;;;;;;23.60;46.19;100929.66;20721760;28;20141;-74
2021/07/21 11:39:57;;;;;;;11.63;7.00;;;;;;;23.74;44.22;100921.69;20720161;28;20562;-74
2021/07/21 11:49:59;;;;;;;14.93;7.13;;;;;;;24.32;43.95;100912.63;20737550;28;20100;-75
2021/07/21 12:00:03;;;;;;;14.25;8.20;;;;;;;24.20;43.19;100912.56;20740265;28;20128;-75
2021/07/21 12:10:10;;;;;;;12.80;7.87;;;;;;;24.29;41.98;100906.59;20738349;28;20041;-74
2021/07/21 12:20:14;;;;;;;11.85;7.97;;;;;;;24.43;41.30;100903.06;20737415;28;20045;-75
2021/07/21 12:30:21;;;;;;;10.30;6.90;;;;;;;24.60;40.33;100897.47;20735115;28;20045;-75
2021/07/21 12:40:27;;;;;;;12.80;6.93;;;;;;;24.75;40.33;100893.75;20748392;28;20050;-75
2021/07/21 12:50:32;;;;;;;12.02;7.00;;;;;;;24.89;39.99;100878.56;20749236;28;20054;-75
2021/07/21 13:00:40;;;;;;;13.55;7.43;;;;;;;24.77;39.71;100878.44;20748569;28;20515;-74
2021/07/21 13:10:44;;;;;;;14.95;7.25;;;;;;;25.00;38.72;100873.34;20729910;28;20104;-75
2021/07/21 13:20:46;;;;;;;12.07;6.50;;;;;;;25.11;39.96;100872.66;20730569;28;20103;-74
2021/07/21 13:30:49;;;;;;;9.85;6.32;;;;;;;25.17;39.38;100875.75;20742130;28;20129;-73
2021/07/21 13:40:57;;;;;;;12.05;6.95;;;;;;;25.19;38.78;100855.06;20745357;28;20467;-74
2021/07/21 13:51:12;;;;;;;12.07;6.68;;;;;;;25.23;37.58;100855.69;20727789;28;20057;-74
2021/07/21 14:01:14;;;;;;;10.70;6.75;;;;;;;25.20;38.20;100877.34;20725095;28;20050;-74
2021/07/21 14:11:27;;;;;;;13.70;6.40;;;;;;;25.51;38.16;100854.63;20785627;28;20465;-75
2021/07/21 14:21:30;;;;;;;9.67;6.47;;;;;;;25.62;38.62;100845.81;20743242;28;20425;-77
2021/07/21 14:31:32;;;;;;;9.88;6.20;;;;;;;25.38;37.32;100849.25;20740966;28;20046;-75
2021/07/21 14:41:44;;;;;;;9.82;5.93;;;;;;;25.53;36.74;100837.44;20741506;28;20080;-76
2021/07/21 14:51:46;;;;;;;11.40;6.13;;;;;;;25.68;34.78;100831.94;20739636;28;20084;-75
2021/07/21 15:01:48;;;;;;;12.75;6.28;;;;;;;26.10;35.96;100822.63;20738250;28;20564;-72
2021/07/21 15:11:51;;;;;;;12.65;6.20;;;;;;;26.01;34.41;100820.63;20720030;28;20399;-73
2021/07/21 15:21:53;;;;;;;11.05;7.07;;;;;;;25.80;34.86;100823.91;20739500;28;20045;-73
2021/07/21 15:31:55;;;;;;;11.00;6.15;;;;;;;26.09;35.01;100818.25;20719056;28;20100;-74
2021/07/21 15:41:57;;;;;;;10.38;6.20;;;;;;;25.83;34.78;100823.69;20736318;28;20129;-73
2021/07/21 15:51:59;;;;;;;13.35;6.35;;;;;;;25.82;33.30;100819.31;20735510;28;20058;-73
2021/07/21 16:02:01;;;;;;;9.52;5.78;;;;;;;25.95;34.17;100807.66;20735997;28;20393;-74
2021/07/21 16:12:04;;;;;;;10.80;5.82;;;;;;;26.29;33.38;100811.38;20727647;28;20088;-74
2021/07/21 16:22:05;;;;;;;9.60;4.80;;;;;;;25.77;32.08;100801.81;20735182;28;20046;-74
2021/07/21 16:32:07;;;;;;;10.15;5.20;;;;;;;26.19;32.63;100794.25;20749249;28;20094;-74
2021/07/21 16:42:09;;;;;;;12.05;4.57;;;;;;;26.07;31.26;100796.03;20731068;28;20414;-74
2021/07/21 16:52:15;;;;;;;7.85;4.40;;;;;;;25.96;31.86;100795.94;20747361;28;20078;-74
2021/07/21 17:02:18;;;;;;;8.93;4.47;;;;;;;25.81;32.59;100795.25;20744598;28;20129;-74
2021/07/21 17:12:22;;;;;;;10.87;4.73;;;;;;;25.79;32.40;100803.44;20746551;28;20046;-74
2021/07/21 17:22:23;;;;;;;7.93;4.72;;;;;;;25.68;32.91;100795.28;20826288;28;20375;-74
2021/07/21 17:32:25;;;;;;;11.15;4.50;;;;;;;25.91;33.53;100798.13;20824244;28;20049;-75
2021/07/21 17:42:27;;;;;;;10.70;4.60;;;;;;;25.16;33.32;100796.31;20824760;28;20072;-74
2021/07/21 17:52:29;;;;;;;7.20;4.05;;;;;;;24.87;34.76;100795.66;20823963;28;20087;-74
2021/07/21 18:02:31;;;;;;;7.10;4.43;;;;;;;24.86;36.34;100814.47;20825377;28;20471;-75
2021/07/21 18:12:33;;;;;;;9.30;3.83;;;;;;;24.59;38.28;100812.75;20827214;28;20045;-76
2021/07/21 18:22:35;;;;;;;8.55;3.90;;;;;;;24.28;39.51;100822.78;20824871;28;20046;-75
2021/07/21 18:32:37;;;;;;;8.23;3.85;;;;;;;23.52;41.41;100827.69;20823613;28;20152;-74
2021/07/21 18:42:40;;;;;;;8.18;4.28;;;;;;;23.21;42.67;100826.94;20821750;28;20049;-74
2021/07/21 18:52:41;;;;;;;7.50;3.95;;;;;;;22.77;44.04;100833.13;20804022;28;20112;-75
2021/07/21 19:02:44;;;;;;;8.10;3.95;;;;;;;22.13;46.39;100831.53;20820652;28;20124;-75
2021/07/21 19:12:49;;;;;;;6.10;3.80;;;;;;;21.88;46.63;100841.84;20776549;28;20053;-75
2021/07/21 19:22:50;;;;;;;10.83;4.03;;;;;;;21.59;46.78;100854.97;20720033;28;20088;-74
2021/07/21 19:32:53;;;;;;;6.68;3.72;;;;;;;21.35;46.70;100858.94;20736906;28;20129;-74
2021/07/21 19:42:54;;;;;;;9.20;3.97;;;;;;;21.14;47.75;100871.56;20741276;28;20054;-75
2021/07/21 19:52:56;;;;;;;7.28;3.85;;;;;;;20.79;48.58;100878.69;20752973;28;20463;-73
2021/07/21 20:02:58;;;;;;;9.20;4.43;;;;;;;20.55;49.39;100881.63;20750483;28;20100;-74
2021/07/21 20:13:00;;;;;;;7.95;4.30;;;;;;;20.36;49.60;100894.06;20733240;28;20050;-73
2021/07/21 20:23:02;;;;;;;7.63;3.95;;;;;;;20.36;49.45;100889.66;20749593;28;20053;-74
2021/07/21 20:33:05;;;;;;;10.75;4.90;;;;;;;20.12;50.30;100891.69;20748478;28;20096;-74
2021/07/21 20:43:08;;;;;;;5.80;3.50;;;;;;;19.82;51.43;100893.09;20749268;28;20077;-74
2021/07/21 20:53:09;;;;;;;12.85;4.28;;;;;;;19.66;51.84;100892.94;20746088;28;20104;-74
2021/07/21 21:03:11;;;;;;;7.63;3.97;;;;;;;19.64;51.42;100885.06;20746983;28;20503;-75
2021/07/21 21:13:13;;;;;;;8.70;4.13;;;;;;;19.39;52.58;100884.38;20732909;28;20042;-74
2021/07/21 21:23:16;;;;;;;8.95;4.38;;;;;;;19.33;53.00;100884.66;20743452;28;20104;-74
2021/07/21 21:33:20;;;;;;;8.30;4.45;;;;;;;19.28;53.20;100876.03;20741652;28;20499;-73
2021/07/21 21:43:22;;;;;;;10.02;4.03;;;;;;;19.11;54.01;100888.25;20743431;28;20116;-71
2021/07/21 21:53:24;;;;;;;9.65;4.57;;;;;;;18.82;55.48;100891.28;20746364;28;20064;-73
2021/07/21 22:03:27;;;;;;;8.60;4.72;;;;;;;18.76;56.01;100896.84;20742612;28;20087;-72
2021/07/21 22:13:28;;;;;;;10.50;5.10;;;;;;;18.63;56.79;100899.09;20739589;28;20073;-73
2021/07/21 22:23:35;;;;;;;10.30;5.32;;;;;;;18.54;57.91;100899.47;20740108;28;20050;-73
2021/07/21 22:33:40;;;;;;;10.15;5.53;;;;;;;18.65;57.63;100910.53;20739208;28;20046;-73
2021/07/21 22:43:43;;;;;;;10.00;5.00;;;;;;;18.40;58.96;100908.88;20737924;28;20397;-73
2021/07/21 22:53:47;;;;;;;8.95;5.57;;;;;;;18.31;59.62;100911.91;20724288;28;20104;-73
2021/07/21 23:04:27;;;;;;;10.25;5.38;;;;;;;18.17;60.65;100922.19;20736778;28;20050;-73
2021/07/21 23:15:07;;;;;;;10.18;5.85;;;;;;;18.04;61.77;100919.13;20731679;22;20046;-80
2021/07/21 23:25:14;;;;;;;11.50;6.00;;;;;;;17.85;62.55;100915.44;20681725;28;20455;-81
2021/07/21 23:35:17;;;;;;;11.48;6.13;;;;;;;17.79;62.54;100915.69;20685708;28;20093;-81
2021/07/21 23:45:18;;;;;;;9.27;5.85;;;;;;;17.63;63.48;100908.28;20712026;28;20103;-80
2021/07/21 23:55:20;;;;;;;12.05;6.43;;;;;;;17.33;65.90;100917.31;20744927;28;20069;-81
